YRARS LUKK-LUKK
Flight info
| Callsign | YRARS |
|---|---|
| Flight time | 0h 34m |
| Altitude | 4000 |
| Route | NETED |
| Aircraft | SR22/L-SDGRY/S |
Departure
| Time | 2026-05-06 14:46 |
|---|---|
| Airport | Chişinău International Airport (LUKK) |
Arrival
| Time | 2026-05-06 15:20 |
|---|---|
| Airport | Chişinău International Airport (LUKK) |
| Time | Latitude | Longitude | Altitude | Speed | Heading |
|---|---|---|---|---|---|
| 2026-05-06 14:28 | 46.93402 | 28.93421 | 310 ft | 0 kts | 7° |
| 2026-05-06 14:39 | 46.93405 | 28.93422 | 310 ft | 2 kts | 9° |
| 2026-05-06 14:39 | 46.93425 | 28.93442 | 309 ft | 2 kts | 110° |
| 2026-05-06 14:40 | 46.93419 | 28.93507 | 307 ft | 10 kts | 98° |
| 2026-05-06 14:40 | 46.93409 | 28.93620 | 304 ft | 11 kts | 98° |
| 2026-05-06 14:40 | 46.93397 | 28.93761 | 299 ft | 15 kts | 95° |
| 2026-05-06 14:40 | 46.93353 | 28.93839 | 298 ft | 7 kts | 194° |
| 2026-05-06 14:41 | 46.93307 | 28.93829 | 299 ft | 8 kts | 187° |
| 2026-05-06 14:41 | 46.93230 | 28.93814 | 301 ft | 13 kts | 187° |
| 2026-05-06 14:41 | 46.93147 | 28.93799 | 303 ft | 10 kts | 184° |
| 2026-05-06 14:41 | 46.93118 | 28.93840 | 302 ft | 6 kts | 101° |
| 2026-05-06 14:42 | 46.93106 | 28.93992 | 299 ft | 23 kts | 97° |
| 2026-05-06 14:42 | 46.93082 | 28.94259 | 293 ft | 25 kts | 97° |
| 2026-05-06 14:42 | 46.93062 | 28.94502 | 289 ft | 22 kts | 96° |
| 2026-05-06 14:42 | 46.93045 | 28.94712 | 285 ft | 19 kts | 97° |
| 2026-05-06 14:43 | 46.93027 | 28.94922 | 280 ft | 20 kts | 98° |
| 2026-05-06 14:43 | 46.92999 | 28.95105 | 275 ft | 14 kts | 157° |
| 2026-05-06 14:43 | 46.92963 | 28.95107 | 275 ft | 0 kts | 177° |
| 2026-05-06 14:44 | 46.92900 | 28.95110 | 275 ft | 14 kts | 177° |
| 2026-05-06 14:44 | 46.92821 | 28.95095 | 274 ft | 8 kts | 248° |
| 2026-05-06 14:45 | 46.92802 | 28.94005 | 322 ft | 103 kts | 268° |
| 2026-05-06 14:45 | 46.92791 | 28.92851 | 477 ft | 123 kts | 270° |
| 2026-05-06 14:45 | 46.92789 | 28.91573 | 756 ft | 128 kts | 271° |
| 2026-05-06 14:45 | 46.92827 | 28.90224 | 965 ft | 137 kts | 273° |
| 2026-05-06 14:46 | 46.92921 | 28.88827 | 1218 ft | 140 kts | 277° |
| 2026-05-06 14:46 | 46.93049 | 28.87416 | 1470 ft | 142 kts | 278° |
| 2026-05-06 14:46 | 46.93210 | 28.85940 | 1508 ft | 150 kts | 279° |
| 2026-05-06 14:46 | 46.93397 | 28.84427 | 1537 ft | 152 kts | 281° |
| 2026-05-06 14:47 | 46.93613 | 28.82907 | 1554 ft | 153 kts | 282° |
| 2026-05-06 14:47 | 46.93842 | 28.81378 | 1563 ft | 154 kts | 283° |
| 2026-05-06 14:47 | 46.94090 | 28.79853 | 1592 ft | 154 kts | 284° |
| 2026-05-06 14:47 | 46.94357 | 28.78336 | 1615 ft | 154 kts | 285° |
| 2026-05-06 14:48 | 46.94648 | 28.76826 | 1631 ft | 155 kts | 286° |
| 2026-05-06 14:48 | 46.94955 | 28.75295 | 1588 ft | 159 kts | 287° |
| 2026-05-06 14:48 | 46.95261 | 28.73759 | 1609 ft | 157 kts | 286° |
| 2026-05-06 14:48 | 46.95689 | 28.72309 | 1647 ft | 156 kts | 311° |
| 2026-05-06 14:49 | 46.96628 | 28.71622 | 1686 ft | 155 kts | 357° |
| 2026-05-06 14:49 | 46.97661 | 28.72036 | 1691 ft | 157 kts | 27° |
| 2026-05-06 14:49 | 46.98629 | 28.72784 | 1703 ft | 158 kts | 28° |
| 2026-05-06 14:49 | 46.99589 | 28.73600 | 1678 ft | 160 kts | 32° |
| 2026-05-06 14:50 | 47.00528 | 28.74501 | 1658 ft | 162 kts | 35° |
| 2026-05-06 14:50 | 47.01455 | 28.75434 | 1641 ft | 158 kts | 34° |
| 2026-05-06 14:50 | 47.02339 | 28.76353 | 1624 ft | 155 kts | 37° |
| 2026-05-06 14:50 | 47.03206 | 28.77295 | 1585 ft | 154 kts | 37° |
| 2026-05-06 14:51 | 47.04055 | 28.78267 | 1530 ft | 155 kts | 39° |
| 2026-05-06 14:51 | 47.04877 | 28.79256 | 1544 ft | 151 kts | 40° |
| 2026-05-06 14:51 | 47.05680 | 28.80235 | 1547 ft | 149 kts | 40° |
| 2026-05-06 14:51 | 47.06430 | 28.81255 | 1582 ft | 144 kts | 52° |
| 2026-05-06 14:52 | 47.06760 | 28.82599 | 1567 ft | 140 kts | 90° |
| 2026-05-06 14:52 | 47.06526 | 28.83978 | 1547 ft | 140 kts | 110° |
| 2026-05-06 14:52 | 47.06171 | 28.85348 | 1529 ft | 146 kts | 112° |
| 2026-05-06 14:52 | 47.05795 | 28.86740 | 1566 ft | 147 kts | 111° |
| 2026-05-06 14:53 | 47.05421 | 28.88152 | 1563 ft | 149 kts | 112° |
| 2026-05-06 14:53 | 47.05073 | 28.89597 | 1573 ft | 150 kts | 106° |
| 2026-05-06 14:53 | 47.04784 | 28.91073 | 1561 ft | 153 kts | 106° |
| 2026-05-06 14:53 | 47.04489 | 28.92587 | 1525 ft | 155 kts | 105° |
| 2026-05-06 14:54 | 47.04206 | 28.94115 | 1509 ft | 155 kts | 107° |
| 2026-05-06 14:54 | 47.03902 | 28.95609 | 1496 ft | 153 kts | 107° |
| 2026-05-06 14:54 | 47.03582 | 28.97076 | 1501 ft | 150 kts | 108° |
| 2026-05-06 14:54 | 47.03274 | 28.98524 | 1501 ft | 148 kts | 108° |
| 2026-05-06 14:55 | 47.02953 | 28.99960 | 1494 ft | 148 kts | 108° |
| 2026-05-06 14:55 | 47.02630 | 29.01386 | 1485 ft | 148 kts | 109° |
| 2026-05-06 14:55 | 47.02304 | 29.02812 | 1475 ft | 147 kts | 108° |
| 2026-05-06 14:55 | 47.01989 | 29.04241 | 1467 ft | 147 kts | 108° |
| 2026-05-06 14:56 | 47.01655 | 29.05654 | 1488 ft | 145 kts | 109° |
| 2026-05-06 14:56 | 47.01326 | 29.07053 | 1485 ft | 145 kts | 109° |
| 2026-05-06 14:56 | 47.00991 | 29.08454 | 1468 ft | 147 kts | 110° |
| 2026-05-06 14:56 | 47.00526 | 29.09769 | 1468 ft | 146 kts | 132° |
| 2026-05-06 14:57 | 46.99657 | 29.10458 | 1494 ft | 144 kts | 169° |
| 2026-05-06 14:57 | 46.98671 | 29.10693 | 1502 ft | 144 kts | 172° |
| 2026-05-06 14:57 | 46.97675 | 29.10858 | 1499 ft | 144 kts | 175° |
| 2026-05-06 14:57 | 46.96673 | 29.10920 | 1434 ft | 143 kts | 180° |
| 2026-05-06 14:58 | 46.95678 | 29.10918 | 1344 ft | 147 kts | 181° |
| 2026-05-06 14:58 | 46.94645 | 29.10875 | 1288 ft | 148 kts | 187° |
| 2026-05-06 14:58 | 46.93725 | 29.10363 | 1214 ft | 138 kts | 219° |
| 2026-05-06 14:58 | 46.93257 | 29.09145 | 1184 ft | 143 kts | 265° |
| 2026-05-06 14:59 | 46.93284 | 29.07684 | 1172 ft | 143 kts | 268° |
| 2026-05-06 14:59 | 46.93172 | 29.06245 | 1157 ft | 145 kts | 263° |
| 2026-05-06 14:59 | 46.93078 | 29.04716 | 1091 ft | 156 kts | 266° |
| 2026-05-06 14:59 | 46.93016 | 29.03119 | 1020 ft | 159 kts | 268° |
| 2026-05-06 15:00 | 46.92997 | 29.01577 | 961 ft | 136 kts | 271° |
| 2026-05-06 15:00 | 46.92973 | 29.00350 | 913 ft | 101 kts | 267° |
| 2026-05-06 15:00 | 46.92941 | 28.99424 | 757 ft | 80 kts | 267° |
| 2026-05-06 15:00 | 46.92908 | 28.98588 | 673 ft | 83 kts | 268° |
| 2026-05-06 15:01 | 46.92888 | 28.97741 | 535 ft | 81 kts | 267° |
| 2026-05-06 15:01 | 46.92863 | 28.96882 | 419 ft | 87 kts | 268° |
| 2026-05-06 15:01 | 46.92838 | 28.96007 | 345 ft | 92 kts | 268° |
| 2026-05-06 15:01 | 46.92821 | 28.95135 | 281 ft | 79 kts | 269° |
| 2026-05-06 15:02 | 46.92806 | 28.94379 | 309 ft | 85 kts | 267° |
| 2026-05-06 15:02 | 46.92764 | 28.93497 | 600 ft | 92 kts | 267° |
| 2026-05-06 15:02 | 46.92733 | 28.92439 | 750 ft | 115 kts | 266° |
| 2026-05-06 15:02 | 46.92711 | 28.91222 | 1008 ft | 124 kts | 270° |
| 2026-05-06 15:03 | 46.92741 | 28.89942 | 1291 ft | 128 kts | 274° |
| 2026-05-06 15:03 | 46.92838 | 28.88622 | 1526 ft | 135 kts | 277° |
| 2026-05-06 15:03 | 46.92967 | 28.87199 | 1604 ft | 143 kts | 278° |
| 2026-05-06 15:03 | 46.93106 | 28.85757 | 1655 ft | 142 kts | 279° |
| 2026-05-06 15:04 | 46.93266 | 28.84338 | 1661 ft | 141 kts | 281° |
| 2026-05-06 15:04 | 46.93450 | 28.82927 | 1660 ft | 141 kts | 282° |
| 2026-05-06 15:04 | 46.93652 | 28.81525 | 1670 ft | 140 kts | 282° |
| 2026-05-06 15:04 | 46.93847 | 28.80121 | 1660 ft | 141 kts | 281° |
| 2026-05-06 15:05 | 46.93739 | 28.78742 | 1690 ft | 139 kts | 241° |
| 2026-05-06 15:05 | 46.93019 | 28.77838 | 1687 ft | 139 kts | 200° |
| 2026-05-06 15:05 | 46.92093 | 28.78005 | 1673 ft | 140 kts | 143° |
| 2026-05-06 15:05 | 46.91663 | 28.79247 | 1669 ft | 140 kts | 104° |
| 2026-05-06 15:06 | 46.91410 | 28.80625 | 1644 ft | 142 kts | 105° |
| 2026-05-06 15:06 | 46.91156 | 28.82038 | 1610 ft | 143 kts | 102° |
| 2026-05-06 15:06 | 46.91019 | 28.83478 | 1599 ft | 143 kts | 95° |
| 2026-05-06 15:06 | 46.90942 | 28.84926 | 1599 ft | 143 kts | 95° |
| 2026-05-06 15:07 | 46.90837 | 28.86373 | 1584 ft | 143 kts | 96° |
| 2026-05-06 15:07 | 46.90747 | 28.87882 | 1591 ft | 156 kts | 95° |
| 2026-05-06 15:07 | 46.90631 | 28.89497 | 1601 ft | 161 kts | 97° |
| 2026-05-06 15:07 | 46.90489 | 28.91154 | 1605 ft | 168 kts | 96° |
| 2026-05-06 15:08 | 46.90422 | 28.92865 | 1627 ft | 168 kts | 91° |
| 2026-05-06 15:08 | 46.90384 | 28.94569 | 1628 ft | 169 kts | 91° |
| 2026-05-06 15:08 | 46.90359 | 28.96295 | 1620 ft | 171 kts | 92° |
| 2026-05-06 15:08 | 46.90319 | 28.98048 | 1614 ft | 173 kts | 92° |
| 2026-05-06 15:09 | 46.90272 | 28.99791 | 1608 ft | 171 kts | 93° |
| 2026-05-06 15:09 | 46.90241 | 29.01531 | 1585 ft | 172 kts | 90° |
| 2026-05-06 15:09 | 46.90242 | 29.03255 | 1627 ft | 168 kts | 90° |
| 2026-05-06 15:09 | 46.90246 | 29.04973 | 1580 ft | 171 kts | 89° |
| 2026-05-06 15:10 | 46.90591 | 29.06518 | 1592 ft | 157 kts | 46° |
| 2026-05-06 15:10 | 46.91598 | 29.06958 | 1681 ft | 161 kts | 350° |
| 2026-05-06 15:10 | 46.92501 | 29.06026 | 1734 ft | 167 kts | 299° |
| 2026-05-06 15:10 | 46.92926 | 29.04391 | 1446 ft | 171 kts | 286° |
| 2026-05-06 15:11 | 46.93015 | 29.02747 | 1134 ft | 163 kts | 267° |
| 2026-05-06 15:11 | 46.92944 | 29.01062 | 871 ft | 171 kts | 267° |
| 2026-05-06 15:11 | 46.92902 | 28.99319 | 608 ft | 174 kts | 268° |
| 2026-05-06 15:11 | 46.92865 | 28.97537 | 426 ft | 174 kts | 269° |
| 2026-05-06 15:12 | 46.92837 | 28.96005 | 393 ft | 120 kts | 269° |
| 2026-05-06 15:12 | 46.92817 | 28.94995 | 284 ft | 81 kts | 269° |
| 2026-05-06 15:12 | 46.92802 | 28.94228 | 324 ft | 86 kts | 266° |
| 2026-05-06 15:12 | 46.92762 | 28.93232 | 438 ft | 114 kts | 266° |
| 2026-05-06 15:13 | 46.92743 | 28.91998 | 650 ft | 127 kts | 268° |
| 2026-05-06 15:13 | 46.92736 | 28.90696 | 971 ft | 128 kts | 270° |
| 2026-05-06 15:13 | 46.92751 | 28.89389 | 1266 ft | 131 kts | 272° |
| 2026-05-06 15:13 | 46.92824 | 28.88030 | 1486 ft | 139 kts | 276° |
| 2026-05-06 15:14 | 46.92941 | 28.86569 | 1609 ft | 149 kts | 277° |
| 2026-05-06 15:14 | 46.92886 | 28.85053 | 1554 ft | 155 kts | 243° |
| 2026-05-06 15:14 | 46.92047 | 28.84214 | 1668 ft | 149 kts | 188° |
| 2026-05-06 15:14 | 46.91024 | 28.84462 | 1692 ft | 151 kts | 167° |
| 2026-05-06 15:15 | 46.89986 | 28.84827 | 1689 ft | 154 kts | 167° |
| 2026-05-06 15:15 | 46.88937 | 28.85194 | 1687 ft | 156 kts | 167° |
| 2026-05-06 15:15 | 46.87893 | 28.85612 | 1713 ft | 155 kts | 158° |
| 2026-05-06 15:15 | 46.87134 | 28.86672 | 1752 ft | 154 kts | 115° |
| 2026-05-06 15:16 | 46.87081 | 28.88204 | 1745 ft | 156 kts | 75° |
| 2026-05-06 15:16 | 46.87549 | 28.89638 | 1734 ft | 157 kts | 61° |
| 2026-05-06 15:16 | 46.88064 | 28.91043 | 1753 ft | 157 kts | 61° |
| 2026-05-06 15:16 | 46.88581 | 28.92445 | 1766 ft | 157 kts | 63° |
| 2026-05-06 15:17 | 46.89077 | 28.93863 | 1783 ft | 157 kts | 63° |
| 2026-05-06 15:17 | 46.89567 | 28.95300 | 1750 ft | 159 kts | 64° |
| 2026-05-06 15:17 | 46.90078 | 28.96766 | 1651 ft | 165 kts | 63° |
| 2026-05-06 15:17 | 46.90622 | 28.98252 | 1577 ft | 167 kts | 62° |
| 2026-05-06 15:18 | 46.91189 | 28.99724 | 1561 ft | 165 kts | 60° |
| 2026-05-06 15:18 | 46.91725 | 29.01164 | 1558 ft | 155 kts | 62° |
| 2026-05-06 15:18 | 46.92481 | 29.02087 | 1443 ft | 147 kts | 9° |
| 2026-05-06 15:18 | 46.93346 | 29.01454 | 1370 ft | 147 kts | 298° |
| 2026-05-06 15:19 | 46.93422 | 29.00078 | 1277 ft | 120 kts | 255° |
| 2026-05-06 15:19 | 46.93181 | 28.99062 | 895 ft | 103 kts | 248° |
| 2026-05-06 15:19 | 46.92942 | 28.98156 | 613 ft | 87 kts | 259° |
| 2026-05-06 15:19 | 46.92879 | 28.97284 | 506 ft | 91 kts | 267° |
| 2026-05-06 15:20 | 46.92852 | 28.96355 | 392 ft | 90 kts | 268° |
| 2026-05-06 15:20 | 46.92826 | 28.95472 | 311 ft | 84 kts | 268° |
| 2026-05-06 15:20 | 46.92810 | 28.94669 | 285 ft | 68 kts | 269° |
| 2026-05-06 15:20 | 46.92805 | 28.94171 | 292 ft | 39 kts | 269° |
| 2026-05-06 15:21 | 46.92796 | 28.93814 | 302 ft | 33 kts | 268° |
| 2026-05-06 15:21 | 46.92793 | 28.93530 | 311 ft | 19 kts | 270° |
| 2026-05-06 15:21 | 46.92827 | 28.93417 | 314 ft | 10 kts | 355° |
| 2026-05-06 15:21 | 46.92891 | 28.93414 | 313 ft | 8 kts | 359° |
| 2026-05-06 15:22 | 46.92945 | 28.93412 | 314 ft | 8 kts | 358° |
| 2026-05-06 15:22 | 46.93013 | 28.93416 | 313 ft | 9 kts | 6° |
| 2026-05-06 15:22 | 46.93093 | 28.93430 | 313 ft | 13 kts | 5° |
| 2026-05-06 15:22 | 46.93182 | 28.93448 | 312 ft | 11 kts | 4° |
| 2026-05-06 15:23 | 46.93258 | 28.93460 | 311 ft | 10 kts | 11° |
| 2026-05-06 15:23 | 46.93326 | 28.93471 | 309 ft | 9 kts | 2° |
| 2026-05-06 15:23 | 46.93361 | 28.93453 | 309 ft | 3 kts | 272° |
| 2026-05-06 15:23 | 46.93373 | 28.93417 | 310 ft | 5 kts | 334° |
| 2026-05-06 15:24 | 46.93396 | 28.93421 | 310 ft | 0 kts | 12° |
| 2026-05-06 15:24 | 46.93397 | 28.93421 | 310 ft | 0 kts | 1° |
| 2026-05-06 15:24 | 46.93400 | 28.93421 | 310 ft | 0 kts | 5° |